^^
MeteoGriva-Weather Station Historical Data
Daily Summary for June 21, 2020 Units:  Metric    English   Both
Daily Weekly Monthly Yearly Custom
  High: Low: Average:
Temperature: 9.3 °C 5.2 °C 7.1 °C
Dew Point: 5.6 °C 2.9 °C 4.2 °C
Humidity: 98% 67.8% 82%
Wind Speed: 10.6km/h 0km/h 2.4km/h
Wind Gust: 24.1km/h - -
Wind- - WSW
Pressure: 1028.5 hPa 1019.6 hPa -
Precipitation: 0.0 mm    
Historical Graphs
 
 
Tabular Data for June 21, 2020
Time Temperature Dew Point Pressure Wind Wind Speed Wind Gust Humidity Rainfall Rate (Hourly) solar
00:04 6.5 °C 5.1 °C 1019.6 hPa Calm     91% 0.0 mm 0 W/m2
00:09 6.5 °C 5.3 °C 1019.6 hPa Calm     92% 0.0 mm 0 W/m2
00:14 6.4 °C 5.4 °C 1019.6 hPa Calm     92.9% 0.0 mm 0 W/m2
00:19 6.2 °C 5.2 °C 1019.6 hPa Calm     93% 0.0 mm 0 W/m2
00:24 6.2 °C 5.2 °C 1019.6 hPa Calm     93.3% 0.0 mm 0 W/m2
00:29 6.2 °C 5.2 °C 1019.6 hPa Calm     92.8% 0.0 mm 0 W/m2
00:34 6.3 °C 5.1 °C 1019.6 hPa Calm     92.1% 0.0 mm 0 W/m2
00:39 6.4 °C 5.3 °C 1020.0 hPa Calm     92.3% 0.0 mm 0 W/m2
00:44 6.4 °C 5.2 °C 1020.0 hPa Calm     91.8% 0.0 mm 0 W/m2
00:49 6.4 °C 5.4 °C 1020.0 hPa Calm     92.9% 0.0 mm 0 W/m2
00:54 6.4 °C 5.2 °C 1020.0 hPa Calm     92% 0.0 mm 0 W/m2
00:58 6.4 °C 5.3 °C 1020.0 hPa Calm     92.2% 0.0 mm 0 W/m2
01:04 6.4 °C 5.5 °C 1020.0 hPa Calm     93.7% 0.0 mm 0 W/m2
01:09 6.3 °C 5.4 °C 1019.6 hPa Calm     94% 0.0 mm 0 W/m2
01:14 6.3 °C 5.4 °C 1020.0 hPa Calm     94% 0.0 mm 0 W/m2
01:19 6.3 °C 5.3 °C 1020.0 hPa Calm     93.2% 0.0 mm 0 W/m2
01:23 6.3 °C 5.3 °C 1020.0 hPa Calm     93% 0.0 mm 0 W/m2
01:29 6.3 °C 5.3 °C 1020.0 hPa Calm     93% 0.0 mm 0 W/m2
01:34 6.3 °C 5.6 °C 1020.0 hPa Calm     95.1% 0.0 mm 0 W/m2
01:39 5.7 °C 5 °C 1020.0 hPa Calm     96% 0.0 mm 0 W/m2
01:44 5.4 °C 5 °C 1020.0 hPa Calm     96.7% 0.0 mm 0 W/m2
01:49 5.4 °C 5 °C 1020.3 hPa Calm     96.9% 0.0 mm 0 W/m2
01:54 5.4 °C 4.9 °C 1020.0 hPa Calm     96.8% 0.0 mm 0 W/m2
01:59 5.6 °C 5 °C 1020.0 hPa Calm     96% 0.0 mm 0 W/m2
02:04 5.7 °C 5 °C 1020.0 hPa Calm     95.4% 0.0 mm 0 W/m2
02:09 5.7 °C 4.9 °C 1020.0 hPa Calm     94.4% 0.0 mm 0 W/m2
02:14 5.8 °C 4.9 °C 1020.0 hPa Calm     94% 0.0 mm 0 W/m2
02:19 6.3 °C 5.3 °C 1020.3 hPa Calm     93% 0.0 mm 0 W/m2
02:24 6.4 °C 5.5 °C 1020.3 hPa Calm     94% 0.0 mm 0 W/m2
02:29 6.4 °C 5.5 °C 1020.3 hPa Calm     94% 0.0 mm 0 W/m2
02:34 6.4 °C 5.5 °C 1020.0 hPa Calm     94% 0.0 mm 0 W/m2
02:39 6.1 °C 5.4 °C 1020.3 hPa Calm     95.6% 0.0 mm 0 W/m2
02:44 5.9 °C 5.5 °C 1020.0 hPa Calm     96.9% 0.0 mm 0 W/m2
02:49 5.8 °C 5.4 °C 1020.0 hPa Calm     97% 0.0 mm 0 W/m2
02:54 5.8 °C 5.3 °C 1020.0 hPa Calm     96.8% 0.0 mm 0 W/m2
02:59 5.6 °C 5 °C 1020.3 hPa Calm     95.7% 0.0 mm 0 W/m2
03:04 5.5 °C 4.9 °C 1020.7 hPa Calm     96% 0.0 mm 0 W/m2
03:09 5.5 °C 4.9 °C 1020.7 hPa Calm     96% 0.0 mm 0 W/m2
03:14 5.5 °C 5 °C 1020.7 hPa Calm     96.5% 0.0 mm 0 W/m2
03:19 5.4 °C 5 °C 1020.7 hPa Calm     97% 0.0 mm 0 W/m2
03:24 5.4 °C 4.9 °C 1020.7 hPa Calm     96.7% 0.0 mm 0 W/m2
03:29 5.4 °C 4.8 °C 1020.7 hPa Calm     96% 0.0 mm 0 W/m2
03:34 5.4 °C 4.8 °C 1020.7 hPa Calm     96.3% 0.0 mm 0 W/m2
03:39 5.5 °C 5 °C 1020.7 hPa Calm     96.3% 0.0 mm 0 W/m2
03:44 5.6 °C 5 °C 1020.7 hPa NE 0.5 km/h 7.9 km/h 96.1% 0.0 mm 0 W/m2
03:49 5.6 °C 5.2 °C 1020.7 hPa Calm     97.4% 0.0 mm 0 W/m2
03:54 5.5 °C 5.2 °C 1020.7 hPa Calm     98% 0.0 mm 0 W/m2
03:59 5.3 °C 5 °C 1020.7 hPa Calm     97.2% 0.0 mm 0 W/m2
04:04 5.2 °C 4.7 °C 1020.7 hPa Calm     96.8% 0.0 mm 0 W/m2
04:09 5.2 °C 4.7 °C 1020.7 hPa Calm     96.8% 0.0 mm 0 W/m2
04:14 5.2 °C 4.8 °C 1020.7 hPa Calm     97% 0.0 mm 0 W/m2
04:19 5.3 °C 4.9 °C 1020.7 hPa Calm     97% 0.0 mm 0 W/m2
04:24 5.3 °C 4.9 °C 1020.7 hPa Calm     97% 0.0 mm 0 W/m2
04:29 5.3 °C 4.9 °C 1020.7 hPa Calm     97.2% 0.0 mm 0 W/m2
04:34 5.3 °C 4.9 °C 1020.7 hPa Calm     97% 0.0 mm 0 W/m2
04:39 5.3 °C 4.9 °C 1020.7 hPa Calm     97% 0.0 mm 0 W/m2
04:44 5.4 °C 5 °C 1020.7 hPa Calm     96.8% 0.0 mm 0 W/m2
04:49 5.4 °C 4.9 °C 1020.7 hPa Calm     96.6% 0.0 mm 0 W/m2
04:54 5.4 °C 5 °C 1020.7 hPa Calm     97% 0.0 mm 0 W/m2
04:59 5.4 °C 5 °C 1021.0 hPa Calm     96.6% 0.0 mm 0 W/m2
05:04 5.5 °C 4.9 °C 1021.0 hPa Calm     96% 0.0 mm 0 W/m2
05:09 5.5 °C 4.9 °C 1021.0 hPa Calm     96% 0.0 mm 0 W/m2
05:14 5.5 °C 4.9 °C 1021.0 hPa Calm     96% 0.0 mm 0 W/m2
05:19 5.5 °C 4.9 °C 1021.0 hPa Calm     96% 0.0 mm 0 W/m2
05:24 5.5 °C 5.1 °C 1021.0 hPa Calm     97% 0.0 mm 0 W/m2
05:29 5.6 °C 4.9 °C 1021.3 hPa Calm     95.5% 0.0 mm 0 W/m2
05:34 5.6 °C 5 °C 1021.3 hPa Calm     95.6% 0.0 mm 0 W/m2
05:39 5.6 °C 5 °C 1021.3 hPa Calm     96.1% 0.0 mm 0 W/m2
05:44 5.6 °C 5.2 °C 1021.3 hPa Calm     97% 0.0 mm 0 W/m2
05:49 5.6 °C 5.2 °C 1021.3 hPa Calm     97% 0.0 mm 0 W/m2
05:54 5.7 °C 5.2 °C 1021.3 hPa Calm     96.7% 0.0 mm 0 W/m2
05:59 5.8 °C 5.1 °C 1021.3 hPa Calm     95.6% 0.0 mm 0 W/m2
06:04 5.9 °C 5.2 °C 1021.3 hPa Calm     95% 0.0 mm 0 W/m2
06:09 5.9 °C 5.1 °C 1021.7 hPa Calm     94.4% 0.0 mm 0 W/m2
06:14 5.9 °C 5 °C 1021.7 hPa Calm     93.8% 0.0 mm 0 W/m2
06:19 5.9 °C 5.2 °C 1021.7 hPa Calm     94.8% 0.0 mm 0 W/m2
06:24 5.9 °C 5 °C 1021.7 hPa Calm     94% 0.0 mm 0 W/m2
06:29 5.9 °C 4.8 °C 1022.0 hPa Calm     92.4% 0.0 mm 0 W/m2
06:33 5.9 °C 4.6 °C 1022.0 hPa Calm     91.5% 0.0 mm 0 W/m2
06:39 6 °C 4.5 °C 1022.0 hPa Calm     89.7% 0.0 mm 0 W/m2
06:44 6.1 °C 4.8 °C 1022.0 hPa Calm     91.4% 0.0 mm 0 W/m2
06:49 6.1 °C 4.9 °C 1022.0 hPa Calm     92.1% 0.0 mm 0 W/m2
06:54 6.1 °C 5.1 °C 1022.0 hPa Calm     93.1% 0.0 mm 0 W/m2
06:59 6 °C 5.1 °C 1022.0 hPa Calm     94% 0.0 mm 0 W/m2
07:04 5.7 °C 4.9 °C 1022.0 hPa Calm     94.7% 0.0 mm 0 W/m2
07:09 5.7 °C 4.7 °C 1022.4 hPa Calm     93.3% 0.0 mm 0 W/m2
07:14 5.7 °C 4.7 °C 1022.4 hPa Calm     93% 0.0 mm 0 W/m2
07:19 5.7 °C 4.7 °C 1022.4 hPa West 0.3 km/h 4 km/h 93% 0.0 mm 0 W/m2
07:24 5.9 °C 4.4 °C 1022.4 hPa NNW 0.9 km/h 12.2 km/h 89.8% 0.0 mm 0 W/m2
07:29 5.9 °C 4 °C 1022.7 hPa North 1 km/h 12.2 km/h 87.1% 0.0 mm 0 W/m2
07:34 6 °C 4.4 °C 1022.7 hPa North 0.9 km/h 7.9 km/h 89.7% 0.0 mm 3 W/m2
07:39 5.9 °C 4.6 °C 1022.7 hPa Calm   4 km/h 91.6% 0.0 mm 5 W/m2
07:44 5.7 °C 4.3 °C 1023.0 hPa NNW 1.2 km/h 7.9 km/h 90.9% 0.0 mm 6 W/m2
07:49 5.7 °C 4.1 °C 1023.0 hPa North 3.1 km/h 12.2 km/h 89.9% 0.0 mm 10 W/m2
07:54 5.7 °C 3.9 °C 1023.0 hPa NNW 5.8 km/h 12.2 km/h 88% 0.0 mm 12 W/m2
07:59 5.8 °C 4 °C 1023.0 hPa NNW 5.1 km/h 16.3 km/h 87.9% 0.0 mm 19 W/m2
08:04 6.3 °C 4.3 °C 1023.4 hPa North 8.7 km/h 16.3 km/h 87% 0.0 mm 24 W/m2
08:09 6.3 °C 4.3 °C 1023.4 hPa NNW 6.4 km/h 16.3 km/h 87% 0.0 mm 26 W/m2
08:14 6.3 °C 4.2 °C 1023.4 hPa NNW 2.3 km/h 12.2 km/h 86.4% 0.0 mm 32 W/m2
08:19 6.3 °C 4.1 °C 1023.4 hPa Calm   7.9 km/h 86% 0.0 mm 35 W/m2
08:24 6.4 °C 4.3 °C 1023.7 hPa Calm     86.3% 0.0 mm 40 W/m2
08:29 6.4 °C 4.2 °C 1023.7 hPa NW 0.4 km/h 4 km/h 86% 0.0 mm 52 W/m2
08:34 6.4 °C 4.3 °C 1023.7 hPa Calm   4 km/h 86.2% 0.0 mm 45 W/m2
08:39 6.4 °C 4.4 °C 1023.7 hPa NNE 0.4 km/h 4 km/h 86.8% 0.0 mm 49 W/m2
08:44 6.5 °C 4.5 °C 1024.0 hPa Calm   4 km/h 87% 0.0 mm 52 W/m2
08:49 6.5 °C 4.4 °C 1024.0 hPa Calm     86.6% 0.0 mm 52 W/m2
08:54 6.5 °C 4.3 °C 1024.0 hPa NNW 0.2 km/h 4 km/h 85.9% 0.0 mm 56 W/m2
08:59 6.6 °C 4 °C 1024.0 hPa North 0.8 km/h 7.9 km/h 83.9% 0.0 mm 57 W/m2
09:04 7 °C 4.3 °C 1024.0 hPa East 1.6 km/h 7.9 km/h 83% 0.0 mm 62 W/m2
09:09 7 °C 4.5 °C 1024.0 hPa NNW 2.6 km/h 12.2 km/h 83.8% 0.0 mm 70 W/m2
09:14 7 °C 4.3 °C 1024.0 hPa North 1.9 km/h 12.2 km/h 83.2% 0.0 mm 76 W/m2
09:19 7 °C 4.3 °C 1024.0 hPa North 5.6 km/h 12.2 km/h 83% 0.0 mm 80 W/m2
09:24 7.3 °C 4.5 °C 1024.0 hPa North 0.3 km/h 7.9 km/h 82.7% 0.0 mm 81 W/m2
09:29 7.3 °C 4.5 °C 1024.0 hPa North 5.5 km/h 12.2 km/h 82.3% 0.0 mm 79 W/m2
09:34 7.3 °C 4.6 °C 1024.4 hPa North 3.9 km/h 12.2 km/h 83% 0.0 mm 83 W/m2
09:39 7.3 °C 4.6 °C 1024.4 hPa NNW 5.3 km/h 16.3 km/h 82.8% 0.0 mm 89 W/m2
09:44 7.5 °C 4.8 °C 1024.4 hPa NNE 7.1 km/h 20.1 km/h 82.7% 0.0 mm 94 W/m2
09:49 7.5 °C 4.8 °C 1024.7 hPa NNW 0.4 km/h 7.9 km/h 83% 0.0 mm 99 W/m2
09:54 7.6 °C 4.9 °C 1024.4 hPa NE 1.2 km/h 7.9 km/h 83% 0.0 mm 100 W/m2
09:59 7.6 °C 4.8 °C 1024.7 hPa NNE 3.7 km/h 16.3 km/h 82.7% 0.0 mm 102 W/m2
10:04 7.9 °C 5 °C 1024.7 hPa North 4.1 km/h 16.3 km/h 82% 0.0 mm 107 W/m2
10:09 7.9 °C 4.8 °C 1024.7 hPa NNW 8.2 km/h 20.1 km/h 81.1% 0.0 mm 107 W/m2
10:14 7.9 °C 4.8 °C 1024.7 hPa North 6 km/h 16.3 km/h 81% 0.0 mm 106 W/m2
10:19 7.9 °C 4.8 °C 1024.7 hPa NNW 9.7 km/h 24.1 km/h 81% 0.0 mm 105 W/m2
10:24 7.9 °C 4.9 °C 1024.7 hPa North 4.2 km/h 16.3 km/h 81.4% 0.0 mm 108 W/m2
10:29 7.9 °C 5 °C 1024.7 hPa North 5.1 km/h 16.3 km/h 81.8% 0.0 mm 109 W/m2
10:34 7.9 °C 4.8 °C 1024.7 hPa NNE 6.4 km/h 16.3 km/h 81% 0.0 mm 108 W/m2
10:39 7.9 °C 4.8 °C 1024.7 hPa North 7.6 km/h 20.1 km/h 81% 0.0 mm 109 W/m2
10:44 8.1 °C 5 °C 1024.7 hPa NNW 5.4 km/h 20.1 km/h 81% 0.0 mm 112 W/m2
10:49 8.1 °C 5 °C 1024.7 hPa NNW 6.6 km/h 16.3 km/h 81% 0.0 mm 112 W/m2
10:54 8.1 °C 5 °C 1025.1 hPa NNW 4.9 km/h 20.1 km/h 80.6% 0.0 mm 113 W/m2
10:59 8.1 °C 4.8 °C 1025.1 hPa North 6.3 km/h 16.3 km/h 79.5% 0.0 mm 115 W/m2
11:04 8.3 °C 4.7 °C 1025.1 hPa North 6.8 km/h 20.1 km/h 78.3% 0.0 mm 114 W/m2
11:09 8.3 °C 4.5 °C 1025.1 hPa North 6.8 km/h 16.3 km/h 77% 0.0 mm 112 W/m2
11:14 8.4 °C 4.5 °C 1025.1 hPa North 8.3 km/h 24.1 km/h 76.4% 0.0 mm 113 W/m2
11:19 8.4 °C 4.4 °C 1024.7 hPa North 6.3 km/h 16.3 km/h 76% 0.0 mm 118 W/m2
11:24 8.5 °C 4.5 °C 1025.1 hPa NNW 7.1 km/h 16.3 km/h 76% 0.0 mm 119 W/m2
11:29 8.5 °C 4.6 °C 1024.7 hPa North 5.4 km/h 16.3 km/h 76.4% 0.0 mm 124 W/m2
11:34 8.5 °C 4.5 °C 1024.7 hPa North 7.6 km/h 20.1 km/h 76.2% 0.0 mm 128 W/m2
11:39 8.5 °C 4.5 °C 1024.7 hPa NNW 7.9 km/h 20.1 km/h 75.9% 0.0 mm 128 W/m2
11:44 8.6 °C 4.4 °C 1024.7 hPa North 9.2 km/h 20.1 km/h 75% 0.0 mm 130 W/m2
11:49 8.6 °C 4.4 °C 1024.7 hPa North 6.1 km/h 16.3 km/h 75% 0.0 mm 129 W/m2
11:54 8.7 °C 4.5 °C 1024.7 hPa North 5.5 km/h 16.3 km/h 75% 0.0 mm 126 W/m2
11:59 8.7 °C 4.5 °C 1024.7 hPa North 7.3 km/h 20.1 km/h 75% 0.0 mm 131 W/m2
12:04 8.8 °C 4.6 °C 1024.7 hPa NNW 6.2 km/h 20.1 km/h 75% 0.0 mm 134 W/m2
12:09 8.8 °C 4.4 °C 1024.7 hPa North 6.4 km/h 16.3 km/h 74.1% 0.0 mm 139 W/m2
12:14 8.8 °C 4.4 °C 1024.7 hPa North 7.7 km/h 16.3 km/h 73.9% 0.0 mm 177 W/m2
12:19 8.8 °C 4.2 °C 1024.7 hPa NE 6.3 km/h 16.3 km/h 73% 0.0 mm 154 W/m2
12:24 9.1 °C 4.5 °C 1024.7 hPa North 3.8 km/h 12.2 km/h 73% 0.0 mm 184 W/m2
12:29 9.2 °C 4.4 °C 1024.4 hPa North 5.6 km/h 16.3 km/h 72.2% 0.0 mm 177 W/m2
12:34 9.2 °C 4.3 °C 1024.4 hPa North 7.9 km/h 24.1 km/h 71.4% 0.0 mm 256 W/m2
12:39 9.3 °C 4.3 °C 1024.4 hPa NNE 7.1 km/h 24.1 km/h 71% 0.0 mm 142 W/m2
12:44 9.3 °C 4.3 °C 1024.4 hPa NNW 9.3 km/h 20.1 km/h 71% 0.0 mm 146 W/m2
12:49 9.2 °C 4.2 °C 1024.4 hPa NNW 9.8 km/h 20.1 km/h 71% 0.0 mm 287 W/m2
12:54 9.2 °C 4.1 °C 1024.4 hPa North 6.6 km/h 20.1 km/h 70.7% 0.0 mm 127 W/m2
12:59 9.2 °C 4.2 °C 1024.4 hPa North 7.9 km/h 16.3 km/h 70.9% 0.0 mm 123 W/m2
13:04 9.3 °C 4.1 °C 1024.4 hPa NNW 7.2 km/h 20.1 km/h 70.3% 0.0 mm 121 W/m2
13:09 9.2 °C 4 °C 1024.4 hPa NNE 10.6 km/h 16.3 km/h 70% 0.0 mm 113 W/m2
13:14 9.2 °C 4 °C 1024.4 hPa North 7.6 km/h 16.3 km/h 70.2% 0.0 mm 112 W/m2
13:19 9.2 °C 4 °C 1024.4 hPa North 6.2 km/h 16.3 km/h 70% 0.0 mm 107 W/m2
13:24 9.2 °C 4 °C 1024.4 hPa NE 6.5 km/h 16.3 km/h 70% 0.0 mm 101 W/m2
13:29 9.2 °C 4 °C 1024.4 hPa NNE 5.5 km/h 20.1 km/h 70% 0.0 mm 99 W/m2
13:34 9.2 °C 4 °C 1024.0 hPa NW 4.8 km/h 20.1 km/h 70% 0.0 mm 88 W/m2
13:39 9.2 °C 4.2 °C 1024.0 hPa NNW 7.8 km/h 20.1 km/h 71.1% 0.0 mm 59 W/m2
13:44 8.9 °C 4.1 °C 1024.4 hPa NNE 6.8 km/h 16.3 km/h 72% 0.0 mm 59 W/m2
13:49 8.7 °C 3.8 °C 1024.4 hPa NNW 9.4 km/h 20.1 km/h 71.7% 0.0 mm 78 W/m2
13:54 8.7 °C 3.6 °C 1024.4 hPa North 7.8 km/h 16.3 km/h 70.5% 0.0 mm 80 W/m2
13:59 8.7 °C 3.6 °C 1024.4 hPa North 3.9 km/h 12.2 km/h 70.3% 0.0 mm 74 W/m2
14:04 8.8 °C 3.5 °C 1024.4 hPa North 3.2 km/h 16.3 km/h 69.8% 0.0 mm 68 W/m2
14:09 8.7 °C 3.3 °C 1024.4 hPa NNW 3.7 km/h 16.3 km/h 69.1% 0.0 mm 65 W/m2
14:14 8.7 °C 3.4 °C 1024.4 hPa NNW 2.6 km/h 7.9 km/h 69.4% 0.0 mm 54 W/m2
14:19 8.7 °C 3.5 °C 1024.4 hPa North 3 km/h 12.2 km/h 70% 0.0 mm 56 W/m2
14:24 8.8 °C 3.6 °C 1024.4 hPa North 2.1 km/h 12.2 km/h 70% 0.0 mm 53 W/m2
14:29 8.8 °C 3.6 °C 1024.4 hPa North 2.8 km/h 12.2 km/h 70% 0.0 mm 54 W/m2
14:34 8.8 °C 3.5 °C 1024.4 hPa NNE 3.1 km/h 12.2 km/h 69.5% 0.0 mm 53 W/m2
14:39 8.8 °C 3.4 °C 1024.4 hPa NNE 4.8 km/h 12.2 km/h 69% 0.0 mm 53 W/m2
14:44 8.8 °C 3.3 °C 1024.0 hPa North 1.7 km/h 12.2 km/h 69% 0.0 mm 54 W/m2
14:48 8.7 °C 3.5 °C 1024.4 hPa North 1.8 km/h 12.2 km/h 70% 0.0 mm 61 W/m2
14:54 8.7 °C 3.6 °C 1024.4 hPa NNW 3.4 km/h 12.2 km/h 70.4% 0.0 mm 84 W/m2
14:59 8.7 °C 3.5 °C 1024.0 hPa North 7.3 km/h 16.3 km/h 70.1% 0.0 mm 88 W/m2
15:04 8.7 °C 3.5 °C 1024.0 hPa NW 5.2 km/h 16.3 km/h 70% 0.0 mm 89 W/m2
15:09 8.8 °C 3.4 °C 1024.0 hPa NNW 8.8 km/h 16.3 km/h 69% 0.0 mm 89 W/m2
15:14 8.8 °C 3.3 °C 1024.0 hPa NNW 9.6 km/h 16.3 km/h 69% 0.0 mm 88 W/m2
15:19 8.7 °C 3.2 °C 1024.0 hPa NNW 6.1 km/h 16.3 km/h 68.4% 0.0 mm 83 W/m2
15:24 8.7 °C 3.1 °C 1024.0 hPa NNW 7.6 km/h 16.3 km/h 68% 0.0 mm 80 W/m2
15:29 8.7 °C 3.1 °C 1024.0 hPa NNE 5.1 km/h 20.1 km/h 67.8% 0.0 mm 75 W/m2
15:34 8.7 °C 3.1 °C 1024.0 hPa North 7.8 km/h 20.1 km/h 67.8% 0.0 mm 69 W/m2
15:39 8.7 °C 3.2 °C 1024.0 hPa North 8 km/h 16.3 km/h 68.8% 0.0 mm 64 W/m2
15:44 8.7 °C 3.3 °C 1024.4 hPa NNW 3 km/h 16.3 km/h 69% 0.0 mm 58 W/m2
15:49 8.6 °C 3.2 °C 1024.4 hPa NNW 7.6 km/h 16.3 km/h 69% 0.0 mm 52 W/m2
15:54 8.6 °C 3.2 °C 1024.4 hPa NNW 7.1 km/h 24.1 km/h 69% 0.0 mm 44 W/m2
15:59 8.6 °C 3.3 °C 1024.4 hPa North 4.1 km/h 24.1 km/h 69.4% 0.0 mm 38 W/m2
16:04 8.4 °C 3.3 °C 1024.4 hPa North 3.7 km/h 20.1 km/h 70.3% 0.0 mm 34 W/m2
16:09 8.2 °C 3.4 °C 1024.4 hPa North 3.1 km/h 7.9 km/h 71.2% 0.0 mm 30 W/m2
16:14 8.2 °C 3.4 °C 1024.4 hPa NNW 5.6 km/h 16.3 km/h 71.6% 0.0 mm 26 W/m2
16:19 8.2 °C 3.5 °C 1024.4 hPa NNW 6.5 km/h 16.3 km/h 72% 0.0 mm 21 W/m2
16:24 8.2 °C 3.6 °C 1024.4 hPa North 5.2 km/h 12.2 km/h 72.8% 0.0 mm 18 W/m2
16:29 7.9 °C 3.4 °C 1024.4 hPa North 1.2 km/h 12.2 km/h 73% 0.0 mm 16 W/m2
16:34 7.9 °C 3.5 °C 1024.4 hPa North 1.3 km/h 12.2 km/h 73.6% 0.0 mm 16 W/m2
16:39 7.9 °C 3.6 °C 1024.4 hPa NNE 0.1 km/h 7.9 km/h 74% 0.0 mm 14 W/m2
16:44 7.9 °C 3.6 °C 1024.4 hPa NNW 2.1 km/h 7.9 km/h 74% 0.0 mm 11 W/m2
16:49 7.7 °C 3.5 °C 1024.4 hPa NNW 1.3 km/h 7.9 km/h 74.1% 0.0 mm 8 W/m2
16:54 7.7 °C 3.5 °C 1024.7 hPa Calm   4 km/h 75% 0.0 mm 5 W/m2
16:59 7.7 °C 3.5 °C 1024.7 hPa Calm     75% 0.0 mm 2 W/m2
17:04 7.6 °C 3.6 °C 1024.7 hPa Calm     75.7% 0.0 mm 0 W/m2
17:09 7.4 °C 3.4 °C 1024.7 hPa Calm     76% 0.0 mm 0 W/m2
17:14 7.3 °C 3.3 °C 1025.1 hPa Calm     76% 0.0 mm 0 W/m2
17:19 7.3 °C 3.3 °C 1025.1 hPa Calm     76% 0.0 mm 0 W/m2
17:24 7.3 °C 3.3 °C 1025.1 hPa Calm     76% 0.0 mm 0 W/m2
17:29 7.3 °C 3.3 °C 1025.1 hPa Calm     76% 0.0 mm 0 W/m2
17:34 7.2 °C 3.3 °C 1025.1 hPa Calm   4 km/h 76.6% 0.0 mm 0 W/m2
17:39 7.2 °C 3.3 °C 1025.1 hPa Calm     76.3% 0.0 mm 0 W/m2
17:44 7.2 °C 3.3 °C 1025.1 hPa Calm     76% 0.0 mm 0 W/m2
17:49 7.3 °C 3.3 °C 1025.1 hPa Calm     76% 0.0 mm 0 W/m2
17:54 7.3 °C 3.2 °C 1025.4 hPa NNW 0.3 km/h 4 km/h 74.9% 0.0 mm 0 W/m2
17:59 7.3 °C 3 °C 1025.4 hPa North 2.1 km/h 7.9 km/h 74% 0.0 mm 0 W/m2
18:04 7.3 °C 2.9 °C 1025.4 hPa North 1.6 km/h 12.2 km/h 73.1% 0.0 mm 0 W/m2
18:09 7.6 °C 3.1 °C 1025.4 hPa Calm     73.2% 0.0 mm 0 W/m2
18:14 7.5 °C 3.2 °C 1025.7 hPa ENE 0.2 km/h 4 km/h 74% 0.0 mm 0 W/m2
18:19 7.5 °C 3.2 °C 1025.4 hPa Calm     74% 0.0 mm 0 W/m2
18:23 7.5 °C 3.2 °C 1025.7 hPa Calm   4 km/h 74% 0.0 mm 0 W/m2
18:29 7.4 °C 3.3 °C 1025.7 hPa North 0.8 km/h 7.9 km/h 75% 0.0 mm 0 W/m2
18:34 7.4 °C 3.3 °C 1025.7 hPa Calm   12.2 km/h 75% 0.0 mm 0 W/m2
18:39 7.4 °C 3.3 °C 1025.7 hPa WSW 0.1 km/h 4 km/h 75% 0.0 mm 0 W/m2
18:44 7.4 °C 3.3 °C 1025.7 hPa West 0.1 km/h 7.9 km/h 75% 0.0 mm 0 W/m2
18:49 7.5 °C 3.4 °C 1025.7 hPa NW 1.1 km/h 7.9 km/h 75% 0.0 mm 0 W/m2
18:54 7.5 °C 3.4 °C 1025.7 hPa NNW 0.7 km/h 7.9 km/h 75% 0.0 mm 0 W/m2
18:59 7.5 °C 3.4 °C 1025.7 hPa Calm     75% 0.0 mm 0 W/m2
19:04 7.5 °C 3.4 °C 1026.1 hPa Calm     75% 0.0 mm 0 W/m2
19:09 7.6 °C 3.5 °C 1026.1 hPa North 0.6 km/h 7.9 km/h 75% 0.0 mm 0 W/m2
19:14 7.6 °C 3.5 °C 1026.1 hPa Calm   7.9 km/h 75% 0.0 mm 0 W/m2
19:19 7.6 °C 3.5 °C 1026.4 hPa NNE 0.5 km/h 7.9 km/h 75% 0.0 mm 0 W/m2
19:24 7.6 °C 3.5 °C 1026.4 hPa NNW 0.8 km/h 7.9 km/h 75% 0.0 mm 0 W/m2
19:29 7.7 °C 3.5 °C 1026.4 hPa NNW 0.5 km/h 7.9 km/h 75% 0.0 mm 0 W/m2
19:34 7.6 °C 3.5 °C 1026.4 hPa NW 1 km/h 7.9 km/h 75% 0.0 mm 0 W/m2
19:39 7.6 °C 3.5 °C 1026.4 hPa North 3 km/h 16.3 km/h 75% 0.0 mm 0 W/m2
19:44 7.7 °C 3.5 °C 1026.4 hPa NNW 1 km/h 16.3 km/h 75% 0.0 mm 0 W/m2
19:49 7.6 °C 3.5 °C 1026.4 hPa NNW 2.9 km/h 16.3 km/h 75% 0.0 mm 0 W/m2
19:54 7.5 °C 3.5 °C 1026.4 hPa North 2.7 km/h 12.2 km/h 75.4% 0.0 mm 0 W/m2
19:59 7.5 °C 3.5 °C 1026.4 hPa North 5.7 km/h 16.3 km/h 76% 0.0 mm 0 W/m2
20:04 7.5 °C 3.5 °C 1026.8 hPa NNW 6.1 km/h 16.3 km/h 76% 0.0 mm 0 W/m2
20:09 7.5 °C 3.5 °C 1026.8 hPa North 7.5 km/h 16.3 km/h 76% 0.0 mm 0 W/m2
20:14 7.4 °C 3.4 °C 1026.8 hPa North 1.4 km/h 12.2 km/h 76% 0.0 mm 0 W/m2
20:19 7.4 °C 3.4 °C 1026.8 hPa NNW 5.3 km/h 16.3 km/h 76% 0.0 mm 0 W/m2
20:24 7.4 °C 3.4 °C 1026.8 hPa NW 4.3 km/h 12.2 km/h 76% 0.0 mm 0 W/m2
20:29 7.4 °C 3.4 °C 1026.8 hPa North 3 km/h 12.2 km/h 76% 0.0 mm 0 W/m2
20:34 7.4 °C 3.4 °C 1026.8 hPa North 0.5 km/h 12.2 km/h 76% 0.0 mm 0 W/m2
20:39 7.4 °C 3.6 °C 1026.8 hPa NNW 2.8 km/h 12.2 km/h 76.8% 0.0 mm 0 W/m2
20:44 7.4 °C 3.6 °C 1026.8 hPa NNW 5.3 km/h 12.2 km/h 77% 0.0 mm 0 W/m2
20:49 7.3 °C 3.6 °C 1027.1 hPa NNW 2.1 km/h 7.9 km/h 77% 0.0 mm 0 W/m2
20:54 7.3 °C 3.5 °C 1027.1 hPa NNW 2.7 km/h 7.9 km/h 77% 0.0 mm 0 W/m2
20:59 7.3 °C 3.5 °C 1027.1 hPa North 2.3 km/h 12.2 km/h 77% 0.0 mm 0 W/m2
21:04 7.3 °C 3.5 °C 1027.1 hPa NNW 4.7 km/h 12.2 km/h 77% 0.0 mm 0 W/m2
21:09 7.3 °C 3.6 °C 1027.1 hPa NNW 2.2 km/h 12.2 km/h 77% 0.0 mm 0 W/m2
21:14 7.3 °C 3.5 °C 1027.4 hPa NNW 3.9 km/h 12.2 km/h 77% 0.0 mm 0 W/m2
21:19 7.3 °C 3.5 °C 1027.4 hPa NNW 4.4 km/h 12.2 km/h 77% 0.0 mm 0 W/m2
21:24 7.3 °C 3.5 °C 1027.4 hPa NNW 5.4 km/h 12.2 km/h 77% 0.0 mm 0 W/m2
21:29 7.3 °C 3.5 °C 1027.4 hPa NW 4.1 km/h 12.2 km/h 77% 0.0 mm 0 W/m2
21:34 7.2 °C 3.4 °C 1027.4 hPa North 6.2 km/h 16.3 km/h 77% 0.0 mm 0 W/m2
21:39 7.2 °C 3.4 °C 1027.4 hPa NNW 7.7 km/h 20.1 km/h 77% 0.0 mm 0 W/m2
21:44 7.2 °C 3.4 °C 1027.4 hPa NNW 3.5 km/h 20.1 km/h 77.1% 0.0 mm 0 W/m2
21:49 7.2 °C 3.5 °C 1027.4 hPa North 4.6 km/h 16.3 km/h 77.3% 0.0 mm 0 W/m2
21:54 7.2 °C 3.4 °C 1027.4 hPa NNW 4 km/h 12.2 km/h 77% 0.0 mm 0 W/m2
21:59 7.2 °C 3.5 °C 1027.4 hPa NW 1.5 km/h 7.9 km/h 77.7% 0.0 mm 0 W/m2
22:04 7.1 °C 3.5 °C 1027.8 hPa NNW 1.1 km/h 12.2 km/h 78% 0.0 mm 0 W/m2
22:09 7.1 °C 3.5 °C 1027.8 hPa North 0.2 km/h 7.9 km/h 78.1% 0.0 mm 0 W/m2
22:14 7 °C 3.6 °C 1027.8 hPa Calm     79% 0.0 mm 0 W/m2
22:19 7 °C 3.6 °C 1027.8 hPa Calm     79% 0.0 mm 0 W/m2
22:24 7 °C 3.7 °C 1027.8 hPa Calm     79.3% 0.0 mm 0 W/m2
22:29 6.9 °C 3.6 °C 1027.8 hPa Calm     79.4% 0.0 mm 0 W/m2
22:34 6.8 °C 3.6 °C 1027.8 hPa NNE 1.7 km/h 7.9 km/h 79.9% 0.0 mm 0 W/m2
22:39 6.8 °C 3.4 °C 1027.8 hPa North 4.7 km/h 12.2 km/h 79% 0.0 mm 0 W/m2
22:44 6.8 °C 3.4 °C 1027.8 hPa NNW 3.5 km/h 16.3 km/h 79% 0.0 mm 0 W/m2
22:49 6.8 °C 3.4 °C 1027.8 hPa North 3.9 km/h 16.3 km/h 79% 0.0 mm 0 W/m2
22:54 6.8 °C 3.4 °C 1027.8 hPa NNW 3.4 km/h 16.3 km/h 79% 0.0 mm 0 W/m2
22:59 6.8 °C 3.4 °C 1027.8 hPa NNW 3.9 km/h 12.2 km/h 79% 0.0 mm 0 W/m2
23:04 6.8 °C 3.4 °C 1027.8 hPa NW 2.5 km/h 12.2 km/h 79% 0.0 mm 0 W/m2
23:09 6.7 °C 3.3 °C 1028.1 hPa NNW 1.3 km/h 7.9 km/h 79% 0.0 mm 0 W/m2
23:14 6.6 °C 3.4 °C 1028.1 hPa Calm   7.9 km/h 79.9% 0.0 mm 0 W/m2
23:19 6.6 °C 3.4 °C 1028.1 hPa Calm     80% 0.0 mm 0 W/m2
23:24 6.6 °C 3.4 °C 1028.1 hPa Calm     80% 0.0 mm 0 W/m2
23:29 6.6 °C 3.6 °C 1028.1 hPa Calm     80.8% 0.0 mm 0 W/m2
23:34 6.5 °C 3.5 °C 1028.5 hPa Calm     81% 0.0 mm 0 W/m2
23:39 6.5 °C 3.5 °C 1028.5 hPa Calm     81% 0.0 mm 0 W/m2
23:44 6.5 °C 3.6 °C 1028.5 hPa Calm     81.8% 0.0 mm 0 W/m2
23:49 6.4 °C 3.6 °C 1028.5 hPa Calm     82.8% 0.0 mm 0 W/m2
23:54 6.3 °C 3.6 °C 1028.5 hPa Calm     83% 0.0 mm 0 W/m2
23:59 6.3 °C 3.6 °C 1028.5 hPa Calm     83% 0.0 mm 0 W/m2
Juneau County Weather
Compliments of Weather Underground - 2 mb